sensor_id;sensor_type;location;lat;lon;timestamp;P1;durP1;ratioP1;P2;durP2;ratioP2
76098;SDS011;64828;49.956;8.636;2023-03-09T00:00:06;3.60;;;2.30;;
76098;SDS011;64828;49.956;8.636;2023-03-09T00:00:25;3.42;;;2.30;;
76098;SDS011;64828;49.956;8.636;2023-03-09T00:00:41;3.97;;;2.23;;
76098;SDS011;64828;49.956;8.636;2023-03-09T00:00:57;4.10;;;2.30;;
76098;SDS011;64828;49.956;8.636;2023-03-09T00:01:17;3.47;;;2.33;;
76098;SDS011;64828;49.956;8.636;2023-03-09T00:01:39;2.80;;;1.83;;
76098;SDS011;64828;49.956;8.636;2023-03-09T00:01:55;3.25;;;2.03;;
76098;SDS011;64828;49.956;8.636;2023-03-09T00:02:11;3.35;;;2.03;;
76098;SDS011;64828;49.956;8.636;2023-03-09T00:02:28;2.92;;;1.90;;
76098;SDS011;64828;49.956;8.636;2023-03-09T00:02:43;2.77;;;2.00;;
76098;SDS011;64828;49.956;8.636;2023-03-09T00:03:01;3.07;;;2.03;;
76098;SDS011;64828;49.956;8.636;2023-03-09T00:03:17;3.38;;;2.00;;
76098;SDS011;64828;49.956;8.636;2023-03-09T00:03:33;3.80;;;2.15;;
76098;SDS011;64828;49.956;8.636;2023-03-09T00:03:48;3.60;;;1.95;;
76098;SDS011;64828;49.956;8.636;2023-03-09T00:04:05;3.53;;;1.85;;
76098;SDS011;64828;49.956;8.636;2023-03-09T00:04:24;3.80;;;2.10;;
76098;SDS011;64828;49.956;8.636;2023-03-09T00:04:39;3.67;;;2.10;;
76098;SDS011;64828;49.956;8.636;2023-03-09T00:04:55;3.75;;;2.03;;
76098;SDS011;64828;49.956;8.636;2023-03-09T00:05:10;3.60;;;1.98;;
76098;SDS011;64828;49.956;8.636;2023-03-09T00:05:27;3.47;;;2.03;;
76098;SDS011;64828;49.956;8.636;2023-03-09T00:05:43;4.00;;;2.20;;
76098;SDS011;64828;49.956;8.636;2023-03-09T00:06:08;3.00;;;1.98;;
76098;SDS011;64828;49.956;8.636;2023-03-09T00:06:24;3.57;;;1.70;;
76098;SDS011;64828;49.956;8.636;2023-03-09T00:06:40;3.00;;;1.67;;
76098;SDS011;64828;49.956;8.636;2023-03-09T00:06:57;3.45;;;1.85;;
76098;SDS011;64828;49.956;8.636;2023-03-09T00:07:13;3.72;;;2.03;;
76098;SDS011;64828;49.956;8.636;2023-03-09T00:07:28;2.93;;;2.07;;
76098;SDS011;64828;49.956;8.636;2023-03-09T00:07:45;2.70;;;1.88;;
76098;SDS011;64828;49.956;8.636;2023-03-09T00:08:01;2.78;;;1.75;;
76098;SDS011;64828;49.956;8.636;2023-03-09T00:08:17;3.13;;;1.85;;
76098;SDS011;64828;49.956;8.636;2023-03-09T00:08:32;3.50;;;1.87;;
76098;SDS011;64828;49.956;8.636;2023-03-09T00:08:48;2.85;;;1.80;;
76098;SDS011;64828;49.956;8.636;2023-03-09T00:09:04;3.10;;;1.80;;
76098;SDS011;64828;49.956;8.636;2023-03-09T00:09:20;3.35;;;1.83;;
76098;SDS011;64828;49.956;8.636;2023-03-09T00:09:35;2.70;;;1.80;;
76098;SDS011;64828;49.956;8.636;2023-03-09T00:09:51;3.50;;;1.80;;
76098;SDS011;64828;49.956;8.636;2023-03-09T00:10:09;3.87;;;1.90;;
76098;SDS011;64828;49.956;8.636;2023-03-09T00:10:27;2.97;;;1.92;;
76098;SDS011;64828;49.956;8.636;2023-03-09T00:10:42;3.23;;;1.90;;
76098;SDS011;64828;49.956;8.636;2023-03-09T00:10:58;3.25;;;1.90;;
76098;SDS011;64828;49.956;8.636;2023-03-09T00:11:14;3.45;;;1.90;;
76098;SDS011;64828;49.956;8.636;2023-03-09T00:11:31;3.65;;;2.00;;
76098;SDS011;64828;49.956;8.636;2023-03-09T00:11:47;3.33;;;2.00;;
76098;SDS011;64828;49.956;8.636;2023-03-09T00:12:04;2.92;;;1.80;;
76098;SDS011;64828;49.956;8.636;2023-03-09T00:12:20;3.42;;;1.90;;
76098;SDS011;64828;49.956;8.636;2023-03-09T00:12:37;3.75;;;1.90;;
76098;SDS011;64828;49.956;8.636;2023-03-09T00:12:53;3.33;;;1.85;;
76098;SDS011;64828;49.956;8.636;2023-03-09T00:13:09;2.97;;;1.80;;
76098;SDS011;64828;49.956;8.636;2023-03-09T00:13:24;3.00;;;1.67;;
76098;SDS011;64828;49.956;8.636;2023-03-09T00:13:40;2.90;;;1.65;;
76098;SDS011;64828;49.956;8.636;2023-03-09T00:13:56;2.85;;;1.90;;
76098;SDS011;64828;49.956;8.636;2023-03-09T00:14:12;3.40;;;2.00;;
76098;SDS011;64828;49.956;8.636;2023-03-09T00:14:30;3.03;;;2.05;;
76098;SDS011;64828;49.956;8.636;2023-03-09T00:14:46;2.88;;;2.10;;
76098;SDS011;64828;49.956;8.636;2023-03-09T00:15:01;3.10;;;2.00;;
76098;SDS011;64828;49.956;8.636;2023-03-09T00:15:17;3.05;;;1.90;;
76098;SDS011;64828;49.956;8.636;2023-03-09T00:15:33;2.95;;;2.00;;
76098;SDS011;64828;49.956;8.636;2023-03-09T00:15:49;2.60;;;1.95;;
76098;SDS011;64828;49.956;8.636;2023-03-09T00:16:09;2.63;;;1.75;;
76098;SDS011;64828;49.956;8.636;2023-03-09T00:16:31;2.40;;;1.63;;
76098;SDS011;64828;49.956;8.636;2023-03-09T00:16:47;2.50;;;1.67;;
76098;SDS011;64828;49.956;8.636;2023-03-09T00:17:03;2.75;;;1.85;;
76098;SDS011;64828;49.956;8.636;2023-03-09T00:17:18;3.03;;;1.80;;
76098;SDS011;64828;49.956;8.636;2023-03-09T00:17:34;3.03;;;1.70;;
76098;SDS011;64828;49.956;8.636;2023-03-09T00:17:49;2.90;;;1.90;;
76098;SDS011;64828;49.956;8.636;2023-03-09T00:18:05;3.00;;;1.83;;
76098;SDS011;64828;49.956;8.636;2023-03-09T00:18:21;2.95;;;1.83;;
76098;SDS011;64828;49.956;8.636;2023-03-09T00:18:38;3.13;;;2.03;;
76098;SDS011;64828;49.956;8.636;2023-03-09T00:18:55;3.20;;;2.00;;
76098;SDS011;64828;49.956;8.636;2023-03-09T00:19:12;3.40;;;1.92;;
76098;SDS011;64828;49.956;8.636;2023-03-09T00:19:35;2.83;;;1.73;;
76098;SDS011;64828;49.956;8.636;2023-03-09T00:19:51;3.03;;;1.70;;
76098;SDS011;64828;49.956;8.636;2023-03-09T00:20:15;3.83;;;1.67;;
76098;SDS011;64828;49.956;8.636;2023-03-09T00:20:34;3.70;;;1.88;;
76098;SDS011;64828;49.956;8.636;2023-03-09T00:20:52;3.60;;;1.95;;
76098;SDS011;64828;49.956;8.636;2023-03-09T00:21:08;3.27;;;1.90;;
76098;SDS011;64828;49.956;8.636;2023-03-09T00:21:47;3.03;;;2.13;;
76098;SDS011;64828;49.956;8.636;2023-03-09T00:22:06;3.25;;;2.20;;
76098;SDS011;64828;49.956;8.636;2023-03-09T00:22:21;3.60;;;2.10;;
76098;SDS011;64828;49.956;8.636;2023-03-09T00:22:37;3.38;;;2.05;;
76098;SDS011;64828;49.956;8.636;2023-03-09T00:22:53;3.07;;;1.73;;
76098;SDS011;64828;49.956;8.636;2023-03-09T00:23:09;3.40;;;1.73;;
76098;SDS011;64828;49.956;8.636;2023-03-09T00:23:26;3.30;;;2.00;;
76098;SDS011;64828;49.956;8.636;2023-03-09T00:23:42;3.03;;;2.00;;
76098;SDS011;64828;49.956;8.636;2023-03-09T00:23:57;2.97;;;1.98;;
76098;SDS011;64828;49.956;8.636;2023-03-09T00:24:14;3.78;;;1.90;;
76098;SDS011;64828;49.956;8.636;2023-03-09T00:24:33;3.00;;;1.60;;
76098;SDS011;64828;49.956;8.636;2023-03-09T00:24:48;2.63;;;1.70;;
76098;SDS011;64828;49.956;8.636;2023-03-09T00:25:04;3.20;;;1.90;;
76098;SDS011;64828;49.956;8.636;2023-03-09T00:25:20;3.30;;;1.87;;
76098;SDS011;64828;49.956;8.636;2023-03-09T00:25:37;3.72;;;2.00;;
76098;SDS011;64828;49.956;8.636;2023-03-09T00:25:53;3.47;;;1.83;;
76098;SDS011;64828;49.956;8.636;2023-03-09T00:26:09;2.78;;;1.70;;
76098;SDS011;64828;49.956;8.636;2023-03-09T00:26:24;4.73;;;2.00;;
76098;SDS011;64828;49.956;8.636;2023-03-09T00:26:48;4.55;;;1.95;;
76098;SDS011;64828;49.956;8.636;2023-03-09T00:27:06;2.72;;;1.63;;
76098;SDS011;64828;49.956;8.636;2023-03-09T00:27:22;3.35;;;1.70;;
76098;SDS011;64828;49.956;8.636;2023-03-09T00:27:38;3.35;;;1.60;;
76098;SDS011;64828;49.956;8.636;2023-03-09T00:27:56;2.80;;;1.80;;
76098;SDS011;64828;49.956;8.636;2023-03-09T00:28:11;2.55;;;1.85;;
76098;SDS011;64828;49.956;8.636;2023-03-09T00:28:27;2.50;;;1.55;;
76098;SDS011;64828;49.956;8.636;2023-03-09T00:28:42;2.40;;;1.40;;
76098;SDS011;64828;49.956;8.636;2023-03-09T00:28:58;2.90;;;1.45;;
76098;SDS011;64828;49.956;8.636;2023-03-09T00:29:14;3.70;;;1.70;;
76098;SDS011;64828;49.956;8.636;2023-03-09T00:29:30;3.70;;;2.05;;
76098;SDS011;64828;49.956;8.636;2023-03-09T00:29:46;2.78;;;1.80;;
76098;SDS011;64828;49.956;8.636;2023-03-09T00:30:02;2.50;;;1.60;;
76098;SDS011;64828;49.956;8.636;2023-03-09T00:30:19;2.33;;;1.70;;
76098;SDS011;64828;49.956;8.636;2023-03-09T00:30:35;2.50;;;1.80;;
76098;SDS011;64828;49.956;8.636;2023-03-09T00:30:50;2.43;;;1.57;;
76098;SDS011;64828;49.956;8.636;2023-03-09T00:31:06;2.33;;;1.60;;
76098;SDS011;64828;49.956;8.636;2023-03-09T00:31:22;2.50;;;1.77;;
76098;SDS011;64828;49.956;8.636;2023-03-09T00:31:38;2.50;;;1.70;;
76098;SDS011;64828;49.956;8.636;2023-03-09T00:31:56;2.38;;;1.75;;
76098;SDS011;64828;49.956;8.636;2023-03-09T00:32:12;2.75;;;1.77;;
76098;SDS011;64828;49.956;8.636;2023-03-09T00:32:28;3.42;;;1.70;;
76098;SDS011;64828;49.956;8.636;2023-03-09T00:32:44;3.37;;;1.90;;
76098;SDS011;64828;49.956;8.636;2023-03-09T00:33:00;2.95;;;2.17;;
76098;SDS011;64828;49.956;8.636;2023-03-09T00:33:16;3.13;;;2.10;;
76098;SDS011;64828;49.956;8.636;2023-03-09T00:33:32;4.35;;;1.90;;
76098;SDS011;64828;49.956;8.636;2023-03-09T00:33:48;4.10;;;1.87;;
76098;SDS011;64828;49.956;8.636;2023-03-09T00:34:04;2.45;;;1.90;;
76098;SDS011;64828;49.956;8.636;2023-03-09T00:34:21;3.58;;;2.03;;
76098;SDS011;64828;49.956;8.636;2023-03-09T00:34:37;3.72;;;2.05;;
76098;SDS011;64828;49.956;8.636;2023-03-09T00:34:53;3.13;;;1.90;;
76098;SDS011;64828;49.956;8.636;2023-03-09T00:35:08;4.18;;;1.92;;
76098;SDS011;64828;49.956;8.636;2023-03-09T00:35:24;5.80;;;2.30;;
76098;SDS011;64828;49.956;8.636;2023-03-09T00:35:40;5.50;;;2.50;;
76098;SDS011;64828;49.956;8.636;2023-03-09T00:35:56;3.27;;;2.13;;
76098;SDS011;64828;49.956;8.636;2023-03-09T00:36:12;3.30;;;2.00;;
76098;SDS011;64828;49.956;8.636;2023-03-09T00:36:31;3.17;;;2.00;;
76098;SDS011;64828;49.956;8.636;2023-03-09T00:36:47;3.63;;;1.88;;
76098;SDS011;64828;49.956;8.636;2023-03-09T00:37:03;3.30;;;1.80;;
76098;SDS011;64828;49.956;8.636;2023-03-09T00:37:19;2.93;;;2.00;;
76098;SDS011;64828;49.956;8.636;2023-03-09T00:37:36;3.78;;;2.20;;
76098;SDS011;64828;49.956;8.636;2023-03-09T00:37:53;3.22;;;2.00;;
76098;SDS011;64828;49.956;8.636;2023-03-09T00:38:08;2.70;;;1.80;;
76098;SDS011;64828;49.956;8.636;2023-03-09T00:38:24;3.73;;;2.00;;
76098;SDS011;64828;49.956;8.636;2023-03-09T00:38:40;4.13;;;2.30;;
76098;SDS011;64828;49.956;8.636;2023-03-09T00:38:55;3.35;;;2.30;;
76098;SDS011;64828;49.956;8.636;2023-03-09T00:39:13;3.13;;;2.10;;
76098;SDS011;64828;49.956;8.636;2023-03-09T00:39:30;2.78;;;2.08;;
76098;SDS011;64828;49.956;8.636;2023-03-09T00:39:46;4.03;;;2.30;;
76098;SDS011;64828;49.956;8.636;2023-03-09T00:40:02;4.33;;;2.37;;
76098;SDS011;64828;49.956;8.636;2023-03-09T00:40:20;3.42;;;2.00;;
76098;SDS011;64828;49.956;8.636;2023-03-09T00:40:36;3.75;;;1.85;;
76098;SDS011;64828;49.956;8.636;2023-03-09T00:40:52;2.92;;;1.55;;
76098;SDS011;64828;49.956;8.636;2023-03-09T00:41:08;3.10;;;1.47;;
76098;SDS011;64828;49.956;8.636;2023-03-09T00:41:25;3.72;;;1.70;;
76098;SDS011;64828;49.956;8.636;2023-03-09T00:41:44;2.95;;;1.83;;
76098;SDS011;64828;49.956;8.636;2023-03-09T00:42:00;2.87;;;1.67;;
76098;SDS011;64828;49.956;8.636;2023-03-09T00:42:15;2.95;;;1.80;;
76098;SDS011;64828;49.956;8.636;2023-03-09T00:42:31;3.30;;;1.90;;
76098;SDS011;64828;49.956;8.636;2023-03-09T00:42:47;2.97;;;1.80;;
76098;SDS011;64828;49.956;8.636;2023-03-09T00:43:03;2.63;;;1.67;;
76098;SDS011;64828;49.956;8.636;2023-03-09T00:43:19;2.37;;;1.40;;
76098;SDS011;64828;49.956;8.636;2023-03-09T00:43:34;3.13;;;1.67;;
76098;SDS011;64828;49.956;8.636;2023-03-09T00:43:50;4.47;;;1.95;;
76098;SDS011;64828;49.956;8.636;2023-03-09T00:44:06;4.00;;;1.80;;
76098;SDS011;64828;49.956;8.636;2023-03-09T00:44:23;3.00;;;1.80;;
76098;SDS011;64828;49.956;8.636;2023-03-09T00:44:38;3.08;;;2.05;;
76098;SDS011;64828;49.956;8.636;2023-03-09T00:44:54;3.00;;;1.90;;
76098;SDS011;64828;49.956;8.636;2023-03-09T00:45:10;2.65;;;1.70;;
76098;SDS011;64828;49.956;8.636;2023-03-09T00:45:27;3.20;;;1.80;;
76098;SDS011;64828;49.956;8.636;2023-03-09T00:45:43;3.43;;;1.70;;
76098;SDS011;64828;49.956;8.636;2023-03-09T00:45:58;3.22;;;1.50;;
76098;SDS011;64828;49.956;8.636;2023-03-09T00:46:14;3.40;;;1.70;;
76098;SDS011;64828;49.956;8.636;2023-03-09T00:46:31;3.50;;;1.88;;
76098;SDS011;64828;49.956;8.636;2023-03-09T00:46:48;3.67;;;1.73;;
76098;SDS011;64828;49.956;8.636;2023-03-09T00:47:03;2.80;;;1.60;;
76098;SDS011;64828;49.956;8.636;2023-03-09T00:47:19;2.47;;;1.50;;
76098;SDS011;64828;49.956;8.636;2023-03-09T00:47:35;2.83;;;1.80;;
76098;SDS011;64828;49.956;8.636;2023-03-09T00:47:50;2.85;;;1.75;;
76098;SDS011;64828;49.956;8.636;2023-03-09T00:48:06;2.85;;;1.60;;
76098;SDS011;64828;49.956;8.636;2023-03-09T00:48:22;3.07;;;1.50;;
76098;SDS011;64828;49.956;8.636;2023-03-09T00:48:39;3.42;;;1.55;;
76098;SDS011;64828;49.956;8.636;2023-03-09T00:48:55;4.50;;;1.70;;
76098;SDS011;64828;49.956;8.636;2023-03-09T00:49:12;3.83;;;1.67;;
76098;SDS011;64828;49.956;8.636;2023-03-09T00:49:29;3.15;;;1.70;;
76098;SDS011;64828;49.956;8.636;2023-03-09T00:49:44;2.80;;;1.50;;
76098;SDS011;64828;49.956;8.636;2023-03-09T00:50:00;2.50;;;1.52;;
76098;SDS011;64828;49.956;8.636;2023-03-09T00:50:16;3.20;;;1.60;;
76098;SDS011;64828;49.956;8.636;2023-03-09T00:50:32;2.80;;;1.43;;
76098;SDS011;64828;49.956;8.636;2023-03-09T00:50:47;2.50;;;1.48;;
76098;SDS011;64828;49.956;8.636;2023-03-09T00:51:03;2.90;;;1.60;;
76098;SDS011;64828;49.956;8.636;2023-03-09T00:51:21;3.20;;;1.70;;
76098;SDS011;64828;49.956;8.636;2023-03-09T00:51:38;3.42;;;1.75;;
76098;SDS011;64828;49.956;8.636;2023-03-09T00:51:56;2.47;;;1.33;;
76098;SDS011;64828;49.956;8.636;2023-03-09T00:52:12;2.35;;;1.38;;
76098;SDS011;64828;49.956;8.636;2023-03-09T00:52:29;2.37;;;1.60;;
76098;SDS011;64828;49.956;8.636;2023-03-09T00:52:45;2.67;;;1.50;;
76098;SDS011;64828;49.956;8.636;2023-03-09T00:53:01;3.07;;;1.60;;
76098;SDS011;64828;49.956;8.636;2023-03-09T00:53:18;3.10;;;1.67;;
76098;SDS011;64828;49.956;8.636;2023-03-09T00:53:33;3.78;;;1.70;;
76098;SDS011;64828;49.956;8.636;2023-03-09T00:53:50;3.63;;;1.55;;
76098;SDS011;64828;49.956;8.636;2023-03-09T00:54:06;3.08;;;1.30;;
76098;SDS011;64828;49.956;8.636;2023-03-09T00:54:24;3.33;;;1.50;;
76098;SDS011;64828;49.956;8.636;2023-03-09T00:54:40;2.73;;;1.50;;
76098;SDS011;64828;49.956;8.636;2023-03-09T00:54:56;2.38;;;1.30;;
76098;SDS011;64828;49.956;8.636;2023-03-09T00:55:12;3.08;;;1.50;;
76098;SDS011;64828;49.956;8.636;2023-03-09T00:55:28;2.88;;;1.40;;
76098;SDS011;64828;49.956;8.636;2023-03-09T00:55:43;1.83;;;1.10;;
76098;SDS011;64828;49.956;8.636;2023-03-09T00:56:03;2.07;;;1.23;;
76098;SDS011;64828;49.956;8.636;2023-03-09T00:56:23;3.47;;;1.50;;
76098;SDS011;64828;49.956;8.636;2023-03-09T00:56:42;2.70;;;1.50;;
76098;SDS011;64828;49.956;8.636;2023-03-09T00:56:57;2.35;;;1.35;;
76098;SDS011;64828;49.956;8.636;2023-03-09T00:57:16;2.40;;;1.40;;
76098;SDS011;64828;49.956;8.636;2023-03-09T00:57:32;3.27;;;1.50;;
76098;SDS011;64828;49.956;8.636;2023-03-09T00:57:47;3.70;;;1.70;;
76098;SDS011;64828;49.956;8.636;2023-03-09T00:58:03;3.90;;;1.63;;
76098;SDS011;64828;49.956;8.636;2023-03-09T00:58:19;3.78;;;1.42;;
76098;SDS011;64828;49.956;8.636;2023-03-09T00:58:34;3.83;;;1.50;;
76098;SDS011;64828;49.956;8.636;2023-03-09T00:58:50;3.97;;;1.55;;
76098;SDS011;64828;49.956;8.636;2023-03-09T00:59:06;3.08;;;1.40;;
76098;SDS011;64828;49.956;8.636;2023-03-09T00:59:22;3.50;;;1.27;;
76098;SDS011;64828;49.956;8.636;2023-03-09T00:59:38;3.45;;;1.20;;
76098;SDS011;64828;49.956;8.636;2023-03-09T00:59:53;3.00;;;1.40;;
76098;SDS011;64828;49.956;8.636;2023-03-09T01:00:09;3.20;;;1.40;;
76098;SDS011;64828;49.956;8.636;2023-03-09T01:00:26;3.50;;;1.30;;
76098;SDS011;64828;49.956;8.636;2023-03-09T01:00:41;2.70;;;1.40;;
76098;SDS011;64828;49.956;8.636;2023-03-09T01:00:57;2.77;;;1.40;;
76098;SDS011;64828;49.956;8.636;2023-03-09T01:01:13;3.50;;;1.40;;
76098;SDS011;64828;49.956;8.636;2023-03-09T01:01:31;2.65;;;1.20;;
76098;SDS011;64828;49.956;8.636;2023-03-09T01:01:47;2.60;;;1.33;;
76098;SDS011;64828;49.956;8.636;2023-03-09T01:02:02;1.97;;;1.40;;
76098;SDS011;64828;49.956;8.636;2023-03-09T01:02:18;2.08;;;1.50;;
76098;SDS011;64828;49.956;8.636;2023-03-09T01:02:35;3.05;;;1.55;;
76098;SDS011;64828;49.956;8.636;2023-03-09T01:02:51;3.58;;;1.40;;
76098;SDS011;64828;49.956;8.636;2023-03-09T01:03:07;3.53;;;1.50;;
76098;SDS011;64828;49.956;8.636;2023-03-09T01:03:22;3.28;;;1.77;;
76098;SDS011;64828;49.956;8.636;2023-03-09T01:03:38;3.10;;;1.60;;
76098;SDS011;64828;49.956;8.636;2023-03-09T01:03:55;2.92;;;1.30;;
76098;SDS011;64828;49.956;8.636;2023-03-09T01:04:11;2.75;;;1.30;;
76098;SDS011;64828;49.956;8.636;2023-03-09T01:04:26;4.28;;;1.50;;
76098;SDS011;64828;49.956;8.636;2023-03-09T01:04:42;3.80;;;1.50;;
76098;SDS011;64828;49.956;8.636;2023-03-09T01:04:57;2.40;;;1.40;;
76098;SDS011;64828;49.956;8.636;2023-03-09T01:05:13;2.27;;;1.20;;
76098;SDS011;64828;49.956;8.636;2023-03-09T01:05:29;2.05;;;1.10;;
76098;SDS011;64828;49.956;8.636;2023-03-09T01:05:45;2.92;;;1.27;;
76098;SDS011;64828;49.956;8.636;2023-03-09T01:06:00;3.83;;;1.67;;
76098;SDS011;64828;49.956;8.636;2023-03-09T01:06:16;3.13;;;1.50;;
76098;SDS011;64828;49.956;8.636;2023-03-09T01:06:32;2.10;;;1.20;;
76098;SDS011;64828;49.956;8.636;2023-03-09T01:06:47;2.72;;;1.30;;
76098;SDS011;64828;49.956;8.636;2023-03-09T01:07:03;3.50;;;1.37;;
76098;SDS011;64828;49.956;8.636;2023-03-09T01:07:19;3.20;;;1.30;;
76098;SDS011;64828;49.956;8.636;2023-03-09T01:07:35;3.10;;;1.45;;
76098;SDS011;64828;49.956;8.636;2023-03-09T01:07:50;3.08;;;1.40;;
76098;SDS011;64828;49.956;8.636;2023-03-09T01:08:06;3.20;;;1.30;;
76098;SDS011;64828;49.956;8.636;2023-03-09T01:08:21;2.60;;;1.38;;
76098;SDS011;64828;49.956;8.636;2023-03-09T01:08:37;2.80;;;1.33;;
76098;SDS011;64828;49.956;8.636;2023-03-09T01:08:53;2.80;;;1.30;;
76098;SDS011;64828;49.956;8.636;2023-03-09T01:09:09;2.67;;;1.30;;
76098;SDS011;64828;49.956;8.636;2023-03-09T01:09:25;2.58;;;1.20;;
76098;SDS011;64828;49.956;8.636;2023-03-09T01:09:40;2.67;;;1.30;;
76098;SDS011;64828;49.956;8.636;2023-03-09T01:09:56;3.00;;;1.40;;
76098;SDS011;64828;49.956;8.636;2023-03-09T01:10:12;2.83;;;1.35;;
76098;SDS011;64828;49.956;8.636;2023-03-09T01:10:28;2.47;;;1.20;;
76098;SDS011;64828;49.956;8.636;2023-03-09T01:10:43;2.23;;;1.40;;
76098;SDS011;64828;49.956;8.636;2023-03-09T01:11:00;2.40;;;1.50;;
76098;SDS011;64828;49.956;8.636;2023-03-09T01:11:19;2.22;;;1.30;;
76098;SDS011;64828;49.956;8.636;2023-03-09T01:11:35;2.72;;;1.20;;
76098;SDS011;64828;49.956;8.636;2023-03-09T01:11:52;2.05;;;0.90;;
76098;SDS011;64828;49.956;8.636;2023-03-09T01:12:07;2.13;;;0.90;;
76098;SDS011;64828;49.956;8.636;2023-03-09T01:12:24;2.60;;;1.30;;
76098;SDS011;64828;49.956;8.636;2023-03-09T01:12:39;2.20;;;1.20;;
76098;SDS011;64828;49.956;8.636;2023-03-09T01:12:55;2.35;;;1.15;;
76098;SDS011;64828;49.956;8.636;2023-03-09T01:13:11;2.55;;;1.23;;
76098;SDS011;64828;49.956;8.636;2023-03-09T01:13:26;2.50;;;1.40;;
76098;SDS011;64828;49.956;8.636;2023-03-09T01:13:42;2.28;;;1.25;;
76098;SDS011;64828;49.956;8.636;2023-03-09T01:13:59;2.70;;;1.27;;
76098;SDS011;64828;49.956;8.636;2023-03-09T01:14:15;2.85;;;1.27;;
76098;SDS011;64828;49.956;8.636;2023-03-09T01:14:30;2.50;;;1.17;;
76098;SDS011;64828;49.956;8.636;2023-03-09T01:14:46;2.05;;;1.33;;
76098;SDS011;64828;49.956;8.636;2023-03-09T01:15:03;1.77;;;1.20;;
76098;SDS011;64828;49.956;8.636;2023-03-09T01:15:20;2.30;;;1.00;;
76098;SDS011;64828;49.956;8.636;2023-03-09T01:15:36;2.83;;;0.98;;
76098;SDS011;64828;49.956;8.636;2023-03-09T01:15:52;2.10;;;1.00;;
76098;SDS011;64828;49.956;8.636;2023-03-09T01:16:08;2.63;;;1.20;;
76098;SDS011;64828;49.956;8.636;2023-03-09T01:16:24;2.40;;;1.10;;
76098;SDS011;64828;49.956;8.636;2023-03-09T01:16:40;2.03;;;1.23;;
76098;SDS011;64828;49.956;8.636;2023-03-09T01:16:55;2.50;;;1.30;;
76098;SDS011;64828;49.956;8.636;2023-03-09T01:17:11;2.75;;;1.13;;
76098;SDS011;64828;49.956;8.636;2023-03-09T01:17:27;3.78;;;1.20;;
76098;SDS011;64828;49.956;8.636;2023-03-09T01:17:42;3.23;;;1.03;;
76098;SDS011;64828;49.956;8.636;2023-03-09T01:17:58;2.65;;;1.00;;
76098;SDS011;64828;49.956;8.636;2023-03-09T01:18:14;3.50;;;1.13;;
76098;SDS011;64828;49.956;8.636;2023-03-09T01:18:29;3.30;;;1.20;;
76098;SDS011;64828;49.956;8.636;2023-03-09T01:18:46;2.00;;;1.25;;
76098;SDS011;64828;49.956;8.636;2023-03-09T01:19:01;1.90;;;1.13;;
76098;SDS011;64828;49.956;8.636;2023-03-09T01:19:17;1.92;;;1.10;;
76098;SDS011;64828;49.956;8.636;2023-03-09T01:19:33;1.83;;;1.08;;
76098;SDS011;64828;49.956;8.636;2023-03-09T01:19:49;4.10;;;1.07;;
76098;SDS011;64828;49.956;8.636;2023-03-09T01:20:05;4.10;;;1.20;;
76098;SDS011;64828;49.956;8.636;2023-03-09T01:20:22;2.70;;;1.20;;
76098;SDS011;64828;49.956;8.636;2023-03-09T01:20:37;2.67;;;1.20;;
76098;SDS011;64828;49.956;8.636;2023-03-09T01:20:53;2.17;;;1.08;;
76098;SDS011;64828;49.956;8.636;2023-03-09T01:21:09;3.50;;;1.27;;
76098;SDS011;64828;49.956;8.636;2023-03-09T01:21:25;3.78;;;1.35;;
76098;SDS011;64828;49.956;8.636;2023-03-09T01:21:41;2.58;;;0.95;;
76098;SDS011;64828;49.956;8.636;2023-03-09T01:21:56;2.10;;;0.83;;
76098;SDS011;64828;49.956;8.636;2023-03-09T01:22:12;2.65;;;0.75;;
76098;SDS011;64828;49.956;8.636;2023-03-09T01:22:28;2.83;;;0.80;;
76098;SDS011;64828;49.956;8.636;2023-03-09T01:22:43;2.40;;;0.90;;
76098;SDS011;64828;49.956;8.636;2023-03-09T01:22:59;2.40;;;1.10;;
76098;SDS011;64828;49.956;8.636;2023-03-09T01:23:14;2.30;;;1.23;;
76098;SDS011;64828;49.956;8.636;2023-03-09T01:23:30;2.38;;;1.17;;
76098;SDS011;64828;49.956;8.636;2023-03-09T01:23:46;3.00;;;1.23;;
76098;SDS011;64828;49.956;8.636;2023-03-09T01:24:02;3.22;;;1.30;;
76098;SDS011;64828;49.956;8.636;2023-03-09T01:24:17;2.53;;;1.00;;
76098;SDS011;64828;49.956;8.636;2023-03-09T01:24:33;2.15;;;0.80;;
76098;SDS011;64828;49.956;8.636;2023-03-09T01:24:48;2.10;;;0.80;;
76098;SDS011;64828;49.956;8.636;2023-03-09T01:25:04;2.55;;;1.00;;
76098;SDS011;64828;49.956;8.636;2023-03-09T01:25:21;2.92;;;1.00;;
76098;SDS011;64828;49.956;8.636;2023-03-09T01:25:37;2.70;;;1.00;;
76098;SDS011;64828;49.956;8.636;2023-03-09T01:25:52;2.65;;;1.05;;
76098;SDS011;64828;49.956;8.636;2023-03-09T01:26:08;2.40;;;0.93;;
76098;SDS011;64828;49.956;8.636;2023-03-09T01:26:24;2.42;;;0.90;;
76098;SDS011;64828;49.956;8.636;2023-03-09T01:26:40;2.37;;;0.90;;
76098;SDS011;64828;49.956;8.636;2023-03-09T01:26:55;2.90;;;0.88;;
76098;SDS011;64828;49.956;8.636;2023-03-09T01:27:11;3.20;;;0.90;;
76098;SDS011;64828;49.956;8.636;2023-03-09T01:27:27;3.25;;;0.90;;
76098;SDS011;64828;49.956;8.636;2023-03-09T01:27:43;3.10;;;0.90;;
76098;SDS011;64828;49.956;8.636;2023-03-09T01:27:58;2.88;;;0.95;;
76098;SDS011;64828;49.956;8.636;2023-03-09T01:28:14;3.28;;;0.90;;
76098;SDS011;64828;49.956;8.636;2023-03-09T01:28:30;2.47;;;0.80;;
76098;SDS011;64828;49.956;8.636;2023-03-09T01:28:46;2.78;;;0.95;;
76098;SDS011;64828;49.956;8.636;2023-03-09T01:29:02;2.70;;;0.80;;
76098;SDS011;64828;49.956;8.636;2023-03-09T01:29:18;2.33;;;0.77;;
76098;SDS011;64828;49.956;8.636;2023-03-09T01:29:34;2.10;;;0.90;;
76098;SDS011;64828;49.956;8.636;2023-03-09T01:29:49;2.10;;;0.88;;
76098;SDS011;64828;49.956;8.636;2023-03-09T01:30:05;2.33;;;0.82;;
76098;SDS011;64828;49.956;8.636;2023-03-09T01:30:22;1.95;;;0.90;;
76098;SDS011;64828;49.956;8.636;2023-03-09T01:30:38;1.50;;;0.75;;
76098;SDS011;64828;49.956;8.636;2023-03-09T01:30:53;1.60;;;0.70;;
76098;SDS011;64828;49.956;8.636;2023-03-09T01:31:10;2.00;;;0.70;;
76098;SDS011;64828;49.956;8.636;2023-03-09T01:31:28;1.73;;;0.70;;
76098;SDS011;64828;49.956;8.636;2023-03-09T01:31:44;2.27;;;0.73;;
76098;SDS011;64828;49.956;8.636;2023-03-09T01:31:59;3.13;;;0.98;;
76098;SDS011;64828;49.956;8.636;2023-03-09T01:32:15;2.43;;;0.93;;
76098;SDS011;64828;49.956;8.636;2023-03-09T01:32:30;2.03;;;0.80;;
76098;SDS011;64828;49.956;8.636;2023-03-09T01:32:46;1.42;;;0.70;;
76098;SDS011;64828;49.956;8.636;2023-03-09T01:33:02;1.17;;;0.60;;
76098;SDS011;64828;49.956;8.636;2023-03-09T01:33:17;1.40;;;0.70;;
76098;SDS011;64828;49.956;8.636;2023-03-09T01:33:33;1.85;;;0.65;;
76098;SDS011;64828;49.956;8.636;2023-03-09T01:33:49;2.70;;;0.70;;
76098;SDS011;64828;49.956;8.636;2023-03-09T01:34:06;2.85;;;0.80;;
76098;SDS011;64828;49.956;8.636;2023-03-09T01:34:26;2.28;;;0.70;;
76098;SDS011;64828;49.956;8.636;2023-03-09T01:34:42;2.20;;;0.70;;
76098;SDS011;64828;49.956;8.636;2023-03-09T01:34:57;1.77;;;0.60;;
76098;SDS011;64828;49.956;8.636;2023-03-09T01:35:13;2.35;;;0.60;;
76098;SDS011;64828;49.956;8.636;2023-03-09T01:35:29;1.80;;;0.70;;
76098;SDS011;64828;49.956;8.636;2023-03-09T01:35:44;1.60;;;0.60;;
76098;SDS011;64828;49.956;8.636;2023-03-09T01:36:02;1.70;;;0.60;;
76098;SDS011;64828;49.956;8.636;2023-03-09T01:36:25;2.03;;;0.73;;
76098;SDS011;64828;49.956;8.636;2023-03-09T01:36:41;2.13;;;0.82;;
76098;SDS011;64828;49.956;8.636;2023-03-09T01:36:57;2.40;;;0.88;;
76098;SDS011;64828;49.956;8.636;2023-03-09T01:37:12;2.23;;;0.80;;
76098;SDS011;64828;49.956;8.636;2023-03-09T01:37:28;2.72;;;0.77;;
76098;SDS011;64828;49.956;8.636;2023-03-09T01:37:44;3.33;;;0.70;;
76098;SDS011;64828;49.956;8.636;2023-03-09T01:37:59;2.88;;;0.70;;
76098;SDS011;64828;49.956;8.636;2023-03-09T01:38:15;1.98;;;0.70;;
76098;SDS011;64828;49.956;8.636;2023-03-09T01:38:31;1.77;;;0.70;;